sensor_id;sensor_type;location;lat;lon;timestamp;pressure;altitude;pressure_sealevel;temperature;humidity
56944;BME280;42848;42.524;12.052;2022-09-11T00:01:19;96656.69;;;19.57;100.00
56944;BME280;42848;42.524;12.052;2022-09-11T00:03:47;96649.25;;;19.65;100.00
56944;BME280;42848;42.524;12.052;2022-09-11T00:06:15;96648.28;;;19.46;100.00
56944;BME280;42848;42.524;12.052;2022-09-11T00:08:42;96642.91;;;19.57;100.00
56944;BME280;42848;42.524;12.052;2022-09-11T00:11:11;96650.38;;;19.56;100.00
56944;BME280;42848;42.524;12.052;2022-09-11T00:13:38;96640.50;;;19.55;100.00
56944;BME280;42848;42.524;12.052;2022-09-11T00:16:06;96636.09;;;19.47;100.00
56944;BME280;42848;42.524;12.052;2022-09-11T00:18:33;96633.31;;;19.44;100.00
56944;BME280;42848;42.524;12.052;2022-09-11T00:21:03;96631.94;;;19.60;100.00
56944;BME280;42848;42.524;12.052;2022-09-11T00:23:32;96635.00;;;19.55;100.00
56944;BME280;42848;42.524;12.052;2022-09-11T00:26:01;96635.44;;;19.57;100.00
56944;BME280;42848;42.524;12.052;2022-09-11T00:28:27;96637.84;;;19.63;100.00
56944;BME280;42848;42.524;12.052;2022-09-11T00:33:23;96624.97;;;19.33;100.00
56944;BME280;42848;42.524;12.052;2022-09-11T00:36:00;96632.22;;;19.52;100.00
56944;BME280;42848;42.524;12.052;2022-09-11T00:38:29;96630.38;;;19.63;100.00
56944;BME280;42848;42.524;12.052;2022-09-11T00:40:58;96620.41;;;19.51;100.00
56944;BME280;42848;42.524;12.052;2022-09-11T00:43:29;96625.84;;;19.44;100.00
56944;BME280;42848;42.524;12.052;2022-09-11T00:46:13;96618.75;;;19.40;100.00
56944;BME280;42848;42.524;12.052;2022-09-11T00:48:38;96624.66;;;19.42;100.00
56944;BME280;42848;42.524;12.052;2022-09-11T00:51:04;96621.34;;;19.25;100.00
56944;BME280;42848;42.524;12.052;2022-09-11T00:53:33;96621.72;;;19.24;100.00
56944;BME280;42848;42.524;12.052;2022-09-11T00:56:02;96620.28;;;19.37;100.00
56944;BME280;42848;42.524;12.052;2022-09-11T00:58:32;96626.09;;;19.28;100.00
56944;BME280;42848;42.524;12.052;2022-09-11T01:00:57;96613.56;;;19.31;100.00
56944;BME280;42848;42.524;12.052;2022-09-11T01:03:25;96613.16;;;19.32;100.00
56944;BME280;42848;42.524;12.052;2022-09-11T01:05:52;96615.56;;;19.38;100.00
56944;BME280;42848;42.524;12.052;2022-09-11T01:08:19;96613.47;;;19.24;100.00
56944;BME280;42848;42.524;12.052;2022-09-11T01:22:00;96616.13;;;19.13;100.00
56944;BME280;42848;42.524;12.052;2022-09-11T01:24:53;96613.06;;;19.22;100.00
56944;BME280;42848;42.524;12.052;2022-09-11T01:38:03;96612.16;;;19.11;100.00
56944;BME280;42848;42.524;12.052;2022-09-11T01:41:07;96607.91;;;19.17;100.00
56944;BME280;42848;42.524;12.052;2022-09-11T01:43:38;96608.34;;;19.22;100.00
56944;BME280;42848;42.524;12.052;2022-09-11T01:46:06;96608.31;;;19.19;100.00
56944;BME280;42848;42.524;12.052;2022-09-11T01:48:38;96598.72;;;19.02;100.00
56944;BME280;42848;42.524;12.052;2022-09-11T01:51:06;96601.78;;;18.93;100.00
56944;BME280;42848;42.524;12.052;2022-09-11T01:53:37;96600.94;;;18.89;100.00
56944;BME280;42848;42.524;12.052;2022-09-11T01:56:09;96599.53;;;19.02;100.00
56944;BME280;42848;42.524;12.052;2022-09-11T01:58:39;96599.34;;;19.25;100.00
56944;BME280;42848;42.524;12.052;2022-09-11T02:01:15;96600.41;;;19.14;100.00
56944;BME280;42848;42.524;12.052;2022-09-11T02:03:52;96597.19;;;19.04;100.00
56944;BME280;42848;42.524;12.052;2022-09-11T02:06:29;96595.59;;;19.03;100.00
56944;BME280;42848;42.524;12.052;2022-09-11T02:09:01;96589.63;;;18.98;100.00
56944;BME280;42848;42.524;12.052;2022-09-11T02:11:31;96592.66;;;19.26;100.00
56944;BME280;42848;42.524;12.052;2022-09-11T02:14:24;96594.84;;;19.10;100.00
56944;BME280;42848;42.524;12.052;2022-09-11T02:17:12;96594.91;;;19.14;100.00
56944;BME280;42848;42.524;12.052;2022-09-11T02:19:40;96594.22;;;19.24;100.00
56944;BME280;42848;42.524;12.052;2022-09-11T02:22:06;96592.50;;;19.09;100.00
56944;BME280;42848;42.524;12.052;2022-09-11T02:24:33;96590.53;;;19.09;100.00
56944;BME280;42848;42.524;12.052;2022-09-11T02:27:05;96583.41;;;19.04;100.00
56944;BME280;42848;42.524;12.052;2022-09-11T02:29:32;96585.94;;;19.20;100.00
56944;BME280;42848;42.524;12.052;2022-09-11T02:31:59;96578.41;;;19.17;100.00
56944;BME280;42848;42.524;12.052;2022-09-11T02:34:31;96572.06;;;19.10;100.00
56944;BME280;42848;42.524;12.052;2022-09-11T02:40:12;96567.31;;;19.07;100.00
56944;BME280;42848;42.524;12.052;2022-09-11T02:43:08;96572.84;;;19.10;100.00
56944;BME280;42848;42.524;12.052;2022-09-11T02:54:09;96570.84;;;19.03;100.00
56944;BME280;42848;42.524;12.052;2022-09-11T02:57:05;96560.16;;;18.98;100.00
56944;BME280;42848;42.524;12.052;2022-09-11T02:59:37;96554.72;;;19.02;100.00
56944;BME280;42848;42.524;12.052;2022-09-11T03:02:10;96563.47;;;19.15;100.00
56944;BME280;42848;42.524;12.052;2022-09-11T03:04:37;96560.34;;;19.20;100.00
56944;BME280;42848;42.524;12.052;2022-09-11T03:07:03;96564.28;;;19.19;100.00
56944;BME280;42848;42.524;12.052;2022-09-11T03:09:28;96559.44;;;19.05;100.00
56944;BME280;42848;42.524;12.052;2022-09-11T03:11:54;96564.41;;;18.92;100.00
56944;BME280;42848;42.524;12.052;2022-09-11T03:14:20;96560.53;;;18.97;100.00
56944;BME280;42848;42.524;12.052;2022-09-11T03:16:46;96560.25;;;19.06;100.00
56944;BME280;42848;42.524;12.052;2022-09-11T03:19:11;96559.34;;;18.94;100.00
56944;BME280;42848;42.524;12.052;2022-09-11T03:21:37;96557.09;;;19.07;100.00
56944;BME280;42848;42.524;12.052;2022-09-11T03:24:04;96547.66;;;19.04;100.00
56944;BME280;42848;42.524;12.052;2022-09-11T03:26:30;96556.53;;;18.87;100.00
56944;BME280;42848;42.524;12.052;2022-09-11T03:29:00;96547.59;;;18.97;100.00
56944;BME280;42848;42.524;12.052;2022-09-11T03:31:26;96550.91;;;18.77;100.00
56944;BME280;42848;42.524;12.052;2022-09-11T03:33:53;96555.44;;;18.95;100.00
56944;BME280;42848;42.524;12.052;2022-09-11T03:36:19;96542.75;;;18.84;100.00
56944;BME280;42848;42.524;12.052;2022-09-11T03:38:46;96545.06;;;18.82;100.00
56944;BME280;42848;42.524;12.052;2022-09-11T03:41:12;96545.63;;;19.01;100.00
56944;BME280;42848;42.524;12.052;2022-09-11T03:43:38;96533.00;;;18.93;100.00
56944;BME280;42848;42.524;12.052;2022-09-11T03:46:04;96540.41;;;18.86;100.00
56944;BME280;42848;42.524;12.052;2022-09-11T03:48:30;96542.88;;;18.98;100.00
56944;BME280;42848;42.524;12.052;2022-09-11T03:50:56;96547.50;;;18.90;100.00
56944;BME280;42848;42.524;12.052;2022-09-11T03:53:24;96540.13;;;18.64;100.00
56944;BME280;42848;42.524;12.052;2022-09-11T03:55:50;96543.41;;;18.73;100.00
56944;BME280;42848;42.524;12.052;2022-09-11T03:58:17;96537.88;;;18.70;100.00
56944;BME280;42848;42.524;12.052;2022-09-11T04:00:45;96546.81;;;18.63;100.00
56944;BME280;42848;42.524;12.052;2022-09-11T04:03:13;96550.88;;;18.73;100.00
56944;BME280;42848;42.524;12.052;2022-09-11T04:05:40;96542.66;;;18.77;100.00
56944;BME280;42848;42.524;12.052;2022-09-11T04:08:10;96550.81;;;18.66;100.00
56944;BME280;42848;42.524;12.052;2022-09-11T04:10:36;96547.38;;;18.76;100.00
56944;BME280;42848;42.524;12.052;2022-09-11T04:13:03;96551.00;;;18.84;100.00
56944;BME280;42848;42.524;12.052;2022-09-11T04:15:28;96557.22;;;18.77;100.00
56944;BME280;42848;42.524;12.052;2022-09-11T04:17:57;96552.69;;;18.62;100.00
56944;BME280;42848;42.524;12.052;2022-09-11T04:20:23;96550.81;;;18.66;100.00
56944;BME280;42848;42.524;12.052;2022-09-11T04:22:49;96554.63;;;18.58;100.00
56944;BME280;42848;42.524;12.052;2022-09-11T04:25:15;96553.56;;;18.66;100.00
56944;BME280;42848;42.524;12.052;2022-09-11T04:27:41;96552.59;;;18.55;100.00
56944;BME280;42848;42.524;12.052;2022-09-11T04:30:07;96548.84;;;18.66;100.00
56944;BME280;42848;42.524;12.052;2022-09-11T04:32:32;96548.69;;;18.56;100.00
56944;BME280;42848;42.524;12.052;2022-09-11T04:34:58;96559.75;;;18.63;100.00
56944;BME280;42848;42.524;12.052;2022-09-11T04:37:27;96561.19;;;18.50;100.00
56944;BME280;42848;42.524;12.052;2022-09-11T04:39:53;96562.78;;;18.51;100.00
56944;BME280;42848;42.524;12.052;2022-09-11T04:42:18;96563.78;;;18.65;100.00
56944;BME280;42848;42.524;12.052;2022-09-11T04:44:44;96558.09;;;18.55;100.00
56944;BME280;42848;42.524;12.052;2022-09-11T04:47:11;96548.63;;;18.48;100.00
56944;BME280;42848;42.524;12.052;2022-09-11T04:49:37;96556.09;;;18.52;100.00
56944;BME280;42848;42.524;12.052;2022-09-11T04:52:03;96555.72;;;18.53;100.00
56944;BME280;42848;42.524;12.052;2022-09-11T04:54:30;96561.53;;;18.44;100.00
56944;BME280;42848;42.524;12.052;2022-09-11T04:56:58;96554.56;;;18.54;100.00
56944;BME280;42848;42.524;12.052;2022-09-11T04:59:26;96548.75;;;18.59;100.00
56944;BME280;42848;42.524;12.052;2022-09-11T05:01:52;96565.63;;;18.61;100.00
56944;BME280;42848;42.524;12.052;2022-09-11T05:04:18;96563.59;;;18.55;100.00
56944;BME280;42848;42.524;12.052;2022-09-11T05:06:44;96562.88;;;18.58;100.00
56944;BME280;42848;42.524;12.052;2022-09-11T05:09:13;96569.09;;;18.55;100.00
56944;BME280;42848;42.524;12.052;2022-09-11T05:11:40;96568.44;;;18.65;100.00
56944;BME280;42848;42.524;12.052;2022-09-11T05:14:06;96573.22;;;18.68;100.00
56944;BME280;42848;42.524;12.052;2022-09-11T05:16:33;96573.59;;;18.66;100.00
56944;BME280;42848;42.524;12.052;2022-09-11T05:19:00;96583.91;;;18.77;100.00
56944;BME280;42848;42.524;12.052;2022-09-11T05:21:27;96585.69;;;18.62;100.00
56944;BME280;42848;42.524;12.052;2022-09-11T05:23:54;96589.03;;;18.78;100.00
56944;BME280;42848;42.524;12.052;2022-09-11T05:26:27;96591.88;;;18.85;100.00
56944;BME280;42848;42.524;12.052;2022-09-11T05:28:58;96599.47;;;18.99;100.00
56944;BME280;42848;42.524;12.052;2022-09-11T05:31:25;96598.94;;;18.86;100.00
56944;BME280;42848;42.524;12.052;2022-09-11T05:33:52;96597.88;;;18.94;100.00
56944;BME280;42848;42.524;12.052;2022-09-11T05:36:20;96602.00;;;19.15;100.00
56944;BME280;42848;42.524;12.052;2022-09-11T05:38:46;96602.00;;;19.15;100.00
56944;BME280;42848;42.524;12.052;2022-09-11T05:41:12;96606.28;;;19.12;100.00
56944;BME280;42848;42.524;12.052;2022-09-11T05:43:38;96607.91;;;19.17;100.00
56944;BME280;42848;42.524;12.052;2022-09-11T05:46:05;96605.13;;;19.13;100.00
56944;BME280;42848;42.524;12.052;2022-09-11T05:48:33;96609.47;;;19.18;100.00
56944;BME280;42848;42.524;12.052;2022-09-11T05:51:01;96613.88;;;19.22;100.00
56944;BME280;42848;42.524;12.052;2022-09-11T05:53:28;96617.84;;;19.28;100.00
56944;BME280;42848;42.524;12.052;2022-09-11T05:56:19;96609.88;;;19.20;100.00
56944;BME280;42848;42.524;12.052;2022-09-11T05:58:47;96611.91;;;19.23;100.00
56944;BME280;42848;42.524;12.052;2022-09-11T06:01:15;96617.81;;;19.25;100.00
56944;BME280;42848;42.524;12.052;2022-09-11T06:03:42;96616.63;;;19.26;100.00
56944;BME280;42848;42.524;12.052;2022-09-11T06:06:10;96620.22;;;19.30;100.00
56944;BME280;42848;42.524;12.052;2022-09-11T06:08:37;96625.44;;;19.42;100.00
56944;BME280;42848;42.524;12.052;2022-09-11T06:11:05;96627.47;;;19.49;100.00
56944;BME280;42848;42.524;12.052;2022-09-11T06:13:34;96629.06;;;19.53;100.00
56944;BME280;42848;42.524;12.052;2022-09-11T06:16:00;96625.25;;;19.65;100.00
56944;BME280;42848;42.524;12.052;2022-09-11T06:18:31;96623.75;;;19.71;100.00
56944;BME280;42848;42.524;12.052;2022-09-11T06:21:03;96636.38;;;19.76;100.00
56944;BME280;42848;42.524;12.052;2022-09-11T06:23:32;96638.75;;;19.77;100.00
56944;BME280;42848;42.524;12.052;2022-09-11T06:26:10;96639.94;;;19.80;100.00
56944;BME280;42848;42.524;12.052;2022-09-11T06:28:37;96640.75;;;19.84;100.00
56944;BME280;42848;42.524;12.052;2022-09-11T06:31:04;96642.75;;;19.87;100.00
56944;BME280;42848;42.524;12.052;2022-09-11T06:33:32;96639.22;;;19.90;100.00
56944;BME280;42848;42.524;12.052;2022-09-11T06:35:59;96633.00;;;19.97;100.00
56944;BME280;42848;42.524;12.052;2022-09-11T06:38:26;96636.53;;;19.97;100.00
56944;BME280;42848;42.524;12.052;2022-09-11T06:40:53;96635.03;;;20.10;100.00
56944;BME280;42848;42.524;12.052;2022-09-11T06:43:19;96626.81;;;20.17;100.00
56944;BME280;42848;42.524;12.052;2022-09-11T06:45:45;96633.09;;;20.14;100.00
56944;BME280;42848;42.524;12.052;2022-09-11T06:48:16;96639.03;;;20.20;100.00
56944;BME280;42848;42.524;12.052;2022-09-11T06:50:43;96631.19;;;20.26;100.00
56944;BME280;42848;42.524;12.052;2022-09-11T06:53:10;96633.63;;;20.38;100.00
56944;BME280;42848;42.524;12.052;2022-09-11T06:55:38;96632.84;;;20.37;100.00
56944;BME280;42848;42.524;12.052;2022-09-11T06:58:04;96627.72;;;20.36;100.00
56944;BME280;42848;42.524;12.052;2022-09-11T07:00:30;96620.63;;;20.38;100.00
56944;BME280;42848;42.524;12.052;2022-09-11T07:02:57;96622.66;;;20.45;100.00
56944;BME280;42848;42.524;12.052;2022-09-11T07:05:23;96623.50;;;20.49;100.00
56944;BME280;42848;42.524;12.052;2022-09-11T07:07:54;96627.41;;;20.48;100.00
56944;BME280;42848;42.524;12.052;2022-09-11T07:10:20;96623.09;;;20.54;100.00
56944;BME280;42848;42.524;12.052;2022-09-11T07:12:46;96629.03;;;20.60;100.00
56944;BME280;42848;42.524;12.052;2022-09-11T07:15:12;96629.84;;;20.60;100.00
56944;BME280;42848;42.524;12.052;2022-09-11T07:17:39;96629.06;;;20.63;100.00
56944;BME280;42848;42.524;12.052;2022-09-11T07:20:05;96631.41;;;20.65;100.00
56944;BME280;42848;42.524;12.052;2022-09-11T07:22:32;96626.72;;;20.69;100.00
56944;BME280;42848;42.524;12.052;2022-09-11T07:25:01;96626.72;;;20.72;100.00
56944;BME280;42848;42.524;12.052;2022-09-11T07:27:28;96630.66;;;20.71;100.00
56944;BME280;42848;42.524;12.052;2022-09-11T07:29:56;96636.19;;;20.71;100.00
56944;BME280;42848;42.524;12.052;2022-09-11T07:32:22;96634.59;;;20.70;100.00
56944;BME280;42848;42.524;12.052;2022-09-11T07:34:48;96636.97;;;20.76;100.00
56944;BME280;42848;42.524;12.052;2022-09-11T07:37:13;96640.16;;;20.78;100.00
56944;BME280;42848;42.524;12.052;2022-09-11T07:39:39;96644.53;;;20.86;100.00
56944;BME280;42848;42.524;12.052;2022-09-11T07:42:05;96646.88;;;20.91;100.00
56944;BME280;42848;42.524;12.052;2022-09-11T07:44:34;96661.44;;;20.84;100.00
56944;BME280;42848;42.524;12.052;2022-09-11T07:47:01;96656.34;;;20.90;100.00
56944;BME280;42848;42.524;12.052;2022-09-11T07:49:27;96660.69;;;20.91;100.00
56944;BME280;42848;42.524;12.052;2022-09-11T07:51:53;96668.22;;;20.94;100.00
56944;BME280;42848;42.524;12.052;2022-09-11T07:54:19;96674.88;;;20.86;100.00
56944;BME280;42848;42.524;12.052;2022-09-11T07:56:46;96682.72;;;20.77;100.00
56944;BME280;42848;42.524;12.052;2022-09-11T07:59:12;96678.78;;;20.78;100.00
56944;BME280;42848;42.524;12.052;2022-09-11T08:01:39;96681.94;;;20.83;100.00
56944;BME280;42848;42.524;12.052;2022-09-11T08:04:09;96687.84;;;20.78;100.00
56944;BME280;42848;42.524;12.052;2022-09-11T08:06:36;96687.44;;;20.80;100.00
56944;BME280;42848;42.524;12.052;2022-09-11T08:09:11;96692.63;;;20.85;100.00
56944;BME280;42848;42.524;12.052;2022-09-11T08:11:42;96687.09;;;20.88;100.00
56944;BME280;42848;42.524;12.052;2022-09-11T08:14:10;96692.19;;;20.83;100.00
56944;BME280;42848;42.524;12.052;2022-09-11T08:16:38;96691.00;;;20.80;100.00
56944;BME280;42848;42.524;12.052;2022-09-11T08:19:05;96689.06;;;20.88;100.00
56944;BME280;42848;42.524;12.052;2022-09-11T08:21:31;96692.25;;;20.97;100.00
56944;BME280;42848;42.524;12.052;2022-09-11T08:23:57;96693.84;;;20.98;100.00
56944;BME280;42848;42.524;12.052;2022-09-11T08:26:27;96690.28;;;20.94;100.00
56944;BME280;42848;42.524;12.052;2022-09-11T08:28:56;96699.31;;;20.91;100.00
56944;BME280;42848;42.524;12.052;2022-09-11T08:31:25;96695.41;;;20.99;100.00
56944;BME280;42848;42.524;12.052;2022-09-11T08:33:52;96707.25;;;20.96;100.00
56944;BME280;42848;42.524;12.052;2022-09-11T08:36:18;96711.63;;;21.04;100.00
56944;BME280;42848;42.524;12.052;2022-09-11T08:38:45;96706.47;;;20.99;100.00
56944;BME280;42848;42.524;12.052;2022-09-11T08:44:03;96708.50;;;21.16;100.00
56944;BME280;42848;42.524;12.052;2022-09-11T08:46:38;96704.13;;;21.12;100.00
56944;BME280;42848;42.524;12.052;2022-09-11T08:49:26;96693.16;;;21.22;100.00
56944;BME280;42848;42.524;12.052;2022-09-11T08:51:55;96701.41;;;21.15;100.00
56944;BME280;42848;42.524;12.052;2022-09-11T08:54:34;96687.63;;;21.22;100.00
56944;BME280;42848;42.524;12.052;2022-09-11T08:57:42;96694.34;;;21.28;100.00
56944;BME280;42848;42.524;12.052;2022-09-11T09:00:22;96697.16;;;21.43;100.00
56944;BME280;42848;42.524;12.052;2022-09-11T09:05:44;96698.75;;;21.51;100.00
56944;BME280;42848;42.524;12.052;2022-09-11T09:16:52;96686.13;;;21.50;100.00
56944;BME280;42848;42.524;12.052;2022-09-11T09:19:37;96697.97;;;21.50;100.00
56944;BME280;42848;42.524;12.052;2022-09-11T09:22:22;96694.41;;;21.53;100.00
56944;BME280;42848;42.524;12.052;2022-09-11T09:24:55;96689.69;;;21.57;100.00
56944;BME280;42848;42.524;12.052;2022-09-11T09:27:37;96690.88;;;21.64;100.00
56944;BME280;42848;42.524;12.052;2022-09-11T09:30:06;96693.25;;;21.72;100.00
56944;BME280;42848;42.524;12.052;2022-09-11T09:32:56;96700.34;;;21.73;100.00
56944;BME280;42848;42.524;12.052;2022-09-11T09:35:48;96687.72;;;21.83;100.00
56944;BME280;42848;42.524;12.052;2022-09-11T09:38:15;96696.41;;;21.53;100.00
56944;BME280;42848;42.524;12.052;2022-09-11T09:46:47;96693.25;;;21.65;100.00
56944;BME280;42848;42.524;12.052;2022-09-11T09:49:17;96688.53;;;21.73;100.00
56944;BME280;42848;42.524;12.052;2022-09-11T09:51:44;96678.28;;;21.88;100.00
56944;BME280;42848;42.524;12.052;2022-09-11T09:54:14;96695.63;;;21.81;100.00
56944;BME280;42848;42.524;12.052;2022-09-11T09:56:41;96678.25;;;21.73;100.00
56944;BME280;42848;42.524;12.052;2022-09-11T10:01:49;96673.53;;;22.09;100.00
56944;BME280;42848;42.524;12.052;2022-09-11T10:04:24;96679.06;;;22.20;100.00
56944;BME280;42848;42.524;12.052;2022-09-11T10:06:53;96673.13;;;22.25;100.00
56944;BME280;42848;42.524;12.052;2022-09-11T10:09:29;96673.13;;;22.25;100.00
56944;BME280;42848;42.524;12.052;2022-09-11T10:12:01;96678.63;;;22.39;100.00
56944;BME280;42848;42.524;12.052;2022-09-11T10:14:57;96669.19;;;22.33;100.00
56944;BME280;42848;42.524;12.052;2022-09-11T10:17:33;96666.38;;;22.51;100.00
56944;BME280;42848;42.524;12.052;2022-09-11T10:22:43;96674.69;;;22.44;97.90
56944;BME280;42848;42.524;12.052;2022-09-11T10:25:15;96674.69;;;22.51;100.00
56944;BME280;42848;42.524;12.052;2022-09-11T10:28:08;96664.78;;;22.47;100.00
56944;BME280;42848;42.524;12.052;2022-09-11T10:30:38;96676.28;;;22.41;97.24
56944;BME280;42848;42.524;12.052;2022-09-11T10:33:28;96668.81;;;22.24;98.95
56944;BME280;42848;42.524;12.052;2022-09-11T10:35:56;96671.06;;;22.58;100.00
56944;BME280;42848;42.524;12.052;2022-09-11T10:38:45;96679.78;;;22.60;99.45
56944;BME280;42848;42.524;12.052;2022-09-11T10:46:36;96670.31;;;22.54;94.07
56944;BME280;42848;42.524;12.052;2022-09-11T10:49:06;96666.31;;;22.69;100.00
56944;BME280;42848;42.524;12.052;2022-09-11T10:51:40;96669.53;;;22.50;96.68
56944;BME280;42848;42.524;12.052;2022-09-11T10:54:20;96673.47;;;22.56;93.74
56944;BME280;42848;42.524;12.052;2022-09-11T10:59:18;96662.72;;;22.76;94.54
56944;BME280;42848;42.524;12.052;2022-09-11T11:01:47;96653.69;;;22.61;94.48
56944;BME280;42848;42.524;12.052;2022-09-11T11:04:13;96657.63;;;22.67;91.70
56944;BME280;42848;42.524;12.052;2022-09-11T11:07:07;96650.84;;;22.89;93.26
56944;BME280;42848;42.524;12.052;2022-09-11T11:09:52;96656.75;;;22.95;93.25
56944;BME280;42848;42.524;12.052;2022-09-11T11:12:26;96663.91;;;22.89;93.53
56944;BME280;42848;42.524;12.052;2022-09-11T11:18:27;96668.25;;;22.79;91.42
56944;BME280;42848;42.524;12.052;2022-09-11T11:37:14;96668.06;;;23.25;93.14
56944;BME280;42848;42.524;12.052;2022-09-11T11:39:56;96660.13;;;23.31;92.24
56944;BME280;42848;42.524;12.052;2022-09-11T11:42:29;96658.16;;;23.28;91.20
56944;BME280;42848;42.524;12.052;2022-09-11T11:45:10;96655.88;;;23.16;88.76
56944;BME280;42848;42.524;12.052;2022-09-11T11:47:43;96662.84;;;23.38;94.15
56944;BME280;42848;42.524;12.052;2022-09-11T11:50:41;96650.53;;;23.46;92.22
56944;BME280;42848;42.524;12.052;2022-09-11T11:53:54;96642.66;;;23.41;89.21
56944;BME280;42848;42.524;12.052;2022-09-11T11:59:10;96638.94;;;23.59;93.60
56944;BME280;42848;42.524;12.052;2022-09-11T12:01:47;96644.53;;;23.55;90.16
56944;BME280;42848;42.524;12.052;2022-09-11T12:06:54;96645.31;;;23.55;89.36
56944;BME280;42848;42.524;12.052;2022-09-11T12:09:20;96637.41;;;23.61;91.01
56944;BME280;42848;42.524;12.052;2022-09-11T12:11:50;96641.25;;;23.74;89.98
56944;BME280;42848;42.524;12.052;2022-09-11T12:14:29;96647.63;;;23.68;86.81
56944;BME280;42848;42.524;12.052;2022-09-11T12:17:18;96645.25;;;23.70;87.08
56944;BME280;42848;42.524;12.052;2022-09-11T12:22:43;96638.94;;;23.69;88.09
56944;BME280;42848;42.524;12.052;2022-09-11T12:32:47;96632.84;;;23.85;87.25
56944;BME280;42848;42.524;12.052;2022-09-11T12:35:22;96637.97;;;23.90;87.13
56944;BME280;42848;42.524;12.052;2022-09-11T12:37:57;96641.00;;;24.06;88.38
56944;BME280;42848;42.524;12.052;2022-09-11T12:40:28;96647.28;;;24.10;87.52
56944;BME280;42848;42.524;12.052;2022-09-11T12:43:04;96629.53;;;24.01;82.68
56944;BME280;42848;42.524;12.052;2022-09-11T12:45:41;96635.41;;;24.10;79.62
56944;BME280;42848;42.524;12.052;2022-09-11T12:48:13;96636.94;;;24.15;80.63
56944;BME280;42848;42.524;12.052;2022-09-11T12:50:54;96623.81;;;24.19;80.23
56944;BME280;42848;42.524;12.052;2022-09-11T12:53:30;96622.94;;;24.32;81.69
56944;BME280;42848;42.524;12.052;2022-09-11T12:55:59;96627.22;;;24.37;82.11
56944;BME280;42848;42.524;12.052;2022-09-11T12:58:39;96627.69;;;24.28;80.08
56944;BME280;42848;42.524;12.052;2022-09-11T13:04:24;96626.50;;;24.33;78.17
56944;BME280;42848;42.524;12.052;2022-09-11T13:06:42;96608.16;;;24.43;79.00
56944;BME280;42848;42.524;12.052;2022-09-11T13:11:54;96610.69;;;24.23;80.46
56944;BME280;42848;42.524;12.052;2022-09-11T13:14:43;96605.38;;;24.01;76.34
56944;BME280;42848;42.524;12.052;2022-09-11T13:19:51;96610.81;;;24.53;74.93
56944;BME280;42848;42.524;12.052;2022-09-11T13:22:24;96612.00;;;24.52;72.52
56944;BME280;42848;42.524;12.052;2022-09-11T13:24:51;96609.53;;;24.61;74.32
56944;BME280;42848;42.524;12.052;2022-09-11T13:27:28;96593.16;;;24.71;75.65
56944;BME280;42848;42.524;12.052;2022-09-11T13:29:55;96591.47;;;24.77;73.65
56944;BME280;42848;42.524;12.052;2022-09-11T13:32:23;96592.50;;;24.90;75.31
56944;BME280;42848;42.524;12.052;2022-09-11T13:34:53;96591.47;;;24.77;68.77
56944;BME280;42848;42.524;12.052;2022-09-11T13:40:37;96583.53;;;25.09;66.72
56944;BME280;42848;42.524;12.052;2022-09-11T13:43:06;96592.66;;;25.10;69.83
56944;BME280;42848;42.524;12.052;2022-09-11T13:45:32;96580.94;;;25.26;70.67
56944;BME280;42848;42.524;12.052;2022-09-11T13:47:58;96594.06;;;25.21;65.08
56944;BME280;42848;42.524;12.052;2022-09-11T13:50:24;96582.16;;;25.21;65.06
56944;BME280;42848;42.524;12.052;2022-09-11T13:52:53;96590.56;;;25.17;64.30
56944;BME280;42848;42.524;12.052;2022-09-11T13:55:22;96584.22;;;25.17;63.38
56944;BME280;42848;42.524;12.052;2022-09-11T13:57:58;96579.97;;;25.36;63.56
56944;BME280;42848;42.524;12.052;2022-09-11T14:00:44;96576.50;;;25.55;70.95
56944;BME280;42848;42.524;12.052;2022-09-11T14:03:29;96583.78;;;25.69;69.84
56944;BME280;42848;42.524;12.052;2022-09-11T14:06:01;96584.22;;;25.67;68.73
56944;BME280;42848;42.524;12.052;2022-09-11T14:08:39;96577.44;;;25.72;63.09
56944;BME280;42848;42.524;12.052;2022-09-11T14:11:09;96569.25;;;25.61;61.51
56944;BME280;42848;42.524;12.052;2022-09-11T14:13:44;96571.59;;;25.63;65.02
56944;BME280;42848;42.524;12.052;2022-09-11T14:18:46;96574.53;;;25.79;68.91
56944;BME280;42848;42.524;12.052;2022-09-11T14:21:20;96565.47;;;25.98;69.13
56944;BME280;42848;42.524;12.052;2022-09-11T14:23:52;96573.41;;;25.96;66.59
56944;BME280;42848;42.524;12.052;2022-09-11T14:26:20;96568.81;;;25.63;62.95
56944;BME280;42848;42.524;12.052;2022-09-11T14:34:27;96560.25;;;25.77;63.86
56944;BME280;42848;42.524;12.052;2022-09-11T14:37:03;96553.13;;;25.76;63.98
56944;BME280;42848;42.524;12.052;2022-09-11T14:42:05;96546.25;;;26.04;64.34
56944;BME280;42848;42.524;12.052;2022-09-11T14:44:33;96550.59;;;25.85;59.02
56944;BME280;42848;42.524;12.052;2022-09-11T14:47:00;96537.97;;;25.80;60.37
56944;BME280;42848;42.524;12.052;2022-09-11T14:49:26;96536.56;;;26.12;62.55
56944;BME280;42848;42.524;12.052;2022-09-11T14:51:55;96539.41;;;25.89;59.20
56944;BME280;42848;42.524;12.052;2022-09-11T14:54:23;96534.63;;;25.89;58.45
56944;BME280;42848;42.524;12.052;2022-09-11T14:56:50;96532.63;;;25.90;61.33
56944;BME280;42848;42.524;12.052;2022-09-11T14:59:17;96538.25;;;25.86;57.10
56944;BME280;42848;42.524;12.052;2022-09-11T15:01:45;96540.34;;;26.02;58.40
56944;BME280;42848;42.524;12.052;2022-09-11T15:04:21;96539.47;;;26.05;58.62
56944;BME280;42848;42.524;12.052;2022-09-11T15:06:54;96545.03;;;25.85;58.46
56944;BME280;42848;42.524;12.052;2022-09-11T15:09:22;96546.66;;;25.83;60.59